sensor_id;sensor_type;location;lat;lon;timestamp;P1;durP1;ratioP1;P2;durP2;ratioP2
32319;SDS011;19080;51.750;5.888;2023-11-21T00:02:22;14.13;;;10.00;;
32319;SDS011;19080;51.750;5.888;2023-11-21T00:04:50;14.10;;;10.40;;
32319;SDS011;19080;51.750;5.888;2023-11-21T00:07:17;12.88;;;9.80;;
32319;SDS011;19080;51.750;5.888;2023-11-21T00:09:43;14.70;;;10.23;;
32319;SDS011;19080;51.750;5.888;2023-11-21T00:12:10;16.70;;;10.52;;
32319;SDS011;19080;51.750;5.888;2023-11-21T00:14:37;16.58;;;11.48;;
32319;SDS011;19080;51.750;5.888;2023-11-21T00:17:04;12.40;;;10.50;;
32319;SDS011;19080;51.750;5.888;2023-11-21T00:19:32;16.75;;;11.13;;
32319;SDS011;19080;51.750;5.888;2023-11-21T00:21:59;14.02;;;9.90;;
32319;SDS011;19080;51.750;5.888;2023-11-21T00:24:26;13.43;;;10.45;;
32319;SDS011;19080;51.750;5.888;2023-11-21T00:26:53;16.25;;;11.00;;
32319;SDS011;19080;51.750;5.888;2023-11-21T00:29:19;14.32;;;10.57;;
32319;SDS011;19080;51.750;5.888;2023-11-21T00:31:46;13.02;;;10.77;;
32319;SDS011;19080;51.750;5.888;2023-11-21T00:34:13;12.27;;;10.23;;
32319;SDS011;19080;51.750;5.888;2023-11-21T00:36:40;17.02;;;10.90;;
32319;SDS011;19080;51.750;5.888;2023-11-21T00:39:07;18.17;;;11.77;;
32319;SDS011;19080;51.750;5.888;2023-11-21T00:41:33;17.00;;;11.80;;
32319;SDS011;19080;51.750;5.888;2023-11-21T00:44:00;17.25;;;12.30;;
32319;SDS011;19080;51.750;5.888;2023-11-21T00:46:27;21.15;;;13.98;;
32319;SDS011;19080;51.750;5.888;2023-11-21T00:48:55;20.35;;;12.30;;
32319;SDS011;19080;51.750;5.888;2023-11-21T00:51:22;15.48;;;11.05;;
32319;SDS011;19080;51.750;5.888;2023-11-21T00:53:49;15.82;;;11.48;;
32319;SDS011;19080;51.750;5.888;2023-11-21T00:56:15;18.10;;;12.63;;
32319;SDS011;19080;51.750;5.888;2023-11-21T00:58:42;17.77;;;11.77;;
32319;SDS011;19080;51.750;5.888;2023-11-21T01:01:12;18.40;;;12.35;;
32319;SDS011;19080;51.750;5.888;2023-11-21T01:03:39;18.20;;;11.88;;
32319;SDS011;19080;51.750;5.888;2023-11-21T01:06:06;13.25;;;10.75;;
32319;SDS011;19080;51.750;5.888;2023-11-21T01:08:33;17.67;;;12.55;;
32319;SDS011;19080;51.750;5.888;2023-11-21T01:11:00;21.13;;;13.10;;
32319;SDS011;19080;51.750;5.888;2023-11-21T01:13:27;22.50;;;13.13;;
32319;SDS011;19080;51.750;5.888;2023-11-21T01:15:55;23.95;;;14.80;;
32319;SDS011;19080;51.750;5.888;2023-11-21T01:18:22;22.45;;;13.48;;
32319;SDS011;19080;51.750;5.888;2023-11-21T01:20:51;17.60;;;12.40;;
32319;SDS011;19080;51.750;5.888;2023-11-21T01:23:19;20.95;;;13.27;;
32319;SDS011;19080;51.750;5.888;2023-11-21T01:25:46;20.17;;;13.35;;
32319;SDS011;19080;51.750;5.888;2023-11-21T01:28:13;16.70;;;12.23;;
32319;SDS011;19080;51.750;5.888;2023-11-21T01:30:40;22.25;;;14.18;;
32319;SDS011;19080;51.750;5.888;2023-11-21T01:33:06;24.17;;;15.27;;
32319;SDS011;19080;51.750;5.888;2023-11-21T01:35:34;24.98;;;14.70;;
32319;SDS011;19080;51.750;5.888;2023-11-21T01:38:01;19.98;;;13.73;;
32319;SDS011;19080;51.750;5.888;2023-11-21T01:40:27;21.52;;;14.38;;
32319;SDS011;19080;51.750;5.888;2023-11-21T01:42:56;19.40;;;13.23;;
32319;SDS011;19080;51.750;5.888;2023-11-21T01:45:23;21.67;;;15.60;;
32319;SDS011;19080;51.750;5.888;2023-11-21T01:47:51;27.33;;;16.10;;
32319;SDS011;19080;51.750;5.888;2023-11-21T01:50:22;23.02;;;15.43;;
32319;SDS011;19080;51.750;5.888;2023-11-21T01:52:50;20.85;;;14.40;;
32319;SDS011;19080;51.750;5.888;2023-11-21T01:55:18;20.55;;;14.75;;
32319;SDS011;19080;51.750;5.888;2023-11-21T01:57:54;23.73;;;16.70;;
32319;SDS011;19080;51.750;5.888;2023-11-21T02:00:21;22.40;;;14.55;;
32319;SDS011;19080;51.750;5.888;2023-11-21T02:02:50;22.13;;;15.18;;
32319;SDS011;19080;51.750;5.888;2023-11-21T02:05:17;22.05;;;15.30;;
32319;SDS011;19080;51.750;5.888;2023-11-21T02:07:45;26.85;;;16.65;;
32319;SDS011;19080;51.750;5.888;2023-11-21T02:10:15;21.48;;;14.52;;
32319;SDS011;19080;51.750;5.888;2023-11-21T02:12:43;29.50;;;18.35;;
32319;SDS011;19080;51.750;5.888;2023-11-21T02:15:14;29.52;;;17.55;;
32319;SDS011;19080;51.750;5.888;2023-11-21T02:17:47;30.98;;;18.38;;
32319;SDS011;19080;51.750;5.888;2023-11-21T02:20:20;26.60;;;18.63;;
32319;SDS011;19080;51.750;5.888;2023-11-21T02:22:50;32.80;;;18.85;;
32319;SDS011;19080;51.750;5.888;2023-11-21T02:25:28;37.88;;;21.20;;
32319;SDS011;19080;51.750;5.888;2023-11-21T02:28:00;44.90;;;18.92;;
32319;SDS011;19080;51.750;5.888;2023-11-21T02:30:29;29.10;;;19.75;;
32319;SDS011;19080;51.750;5.888;2023-11-21T02:32:58;33.60;;;20.75;;
32319;SDS011;19080;51.750;5.888;2023-11-21T02:35:30;29.20;;;18.77;;
32319;SDS011;19080;51.750;5.888;2023-11-21T02:37:58;25.10;;;17.90;;
32319;SDS011;19080;51.750;5.888;2023-11-21T02:40:24;28.02;;;19.73;;
32319;SDS011;19080;51.750;5.888;2023-11-21T02:42:53;31.55;;;19.52;;
32319;SDS011;19080;51.750;5.888;2023-11-21T02:45:20;36.05;;;20.52;;
32319;SDS011;19080;51.750;5.888;2023-11-21T02:47:49;23.58;;;17.75;;
32319;SDS011;19080;51.750;5.888;2023-11-21T02:50:16;24.65;;;17.48;;
32319;SDS011;19080;51.750;5.888;2023-11-21T02:52:45;55.58;;;20.98;;
32319;SDS011;19080;51.750;5.888;2023-11-21T02:55:13;28.48;;;19.50;;
32319;SDS011;19080;51.750;5.888;2023-11-21T02:57:40;65.47;;;21.42;;
32319;SDS011;19080;51.750;5.888;2023-11-21T03:00:06;33.63;;;18.95;;
32319;SDS011;19080;51.750;5.888;2023-11-21T03:02:34;20.13;;;15.43;;
32319;SDS011;19080;51.750;5.888;2023-11-21T03:05:06;29.05;;;17.85;;
32319;SDS011;19080;51.750;5.888;2023-11-21T03:07:38;22.33;;;16.23;;
32319;SDS011;19080;51.750;5.888;2023-11-21T03:10:07;26.48;;;17.45;;
32319;SDS011;19080;51.750;5.888;2023-11-21T03:12:38;26.13;;;15.27;;
32319;SDS011;19080;51.750;5.888;2023-11-21T03:15:06;18.95;;;15.57;;
32319;SDS011;19080;51.750;5.888;2023-11-21T03:17:33;38.13;;;17.27;;
32319;SDS011;19080;51.750;5.888;2023-11-21T03:20:03;19.13;;;14.75;;
32319;SDS011;19080;51.750;5.888;2023-11-21T03:22:31;22.95;;;15.75;;
32319;SDS011;19080;51.750;5.888;2023-11-21T03:24:58;21.98;;;16.13;;
32319;SDS011;19080;51.750;5.888;2023-11-21T03:27:26;23.77;;;16.90;;
32319;SDS011;19080;51.750;5.888;2023-11-21T03:29:52;21.90;;;16.80;;
32319;SDS011;19080;51.750;5.888;2023-11-21T03:32:20;19.92;;;15.05;;
32319;SDS011;19080;51.750;5.888;2023-11-21T03:34:54;29.40;;;17.85;;
32319;SDS011;19080;51.750;5.888;2023-11-21T03:37:23;20.48;;;15.80;;
32319;SDS011;19080;51.750;5.888;2023-11-21T03:39:51;37.90;;;17.33;;
32319;SDS011;19080;51.750;5.888;2023-11-21T03:42:18;20.63;;;15.98;;
32319;SDS011;19080;51.750;5.888;2023-11-21T03:44:44;19.63;;;15.30;;
32319;SDS011;19080;51.750;5.888;2023-11-21T03:47:11;21.45;;;16.67;;
32319;SDS011;19080;51.750;5.888;2023-11-21T03:49:39;21.48;;;16.10;;
32319;SDS011;19080;51.750;5.888;2023-11-21T03:52:05;22.25;;;16.85;;
32319;SDS011;19080;51.750;5.888;2023-11-21T03:54:34;22.88;;;17.30;;
32319;SDS011;19080;51.750;5.888;2023-11-21T03:57:00;22.48;;;17.60;;
32319;SDS011;19080;51.750;5.888;2023-11-21T03:59:27;20.67;;;16.65;;
32319;SDS011;19080;51.750;5.888;2023-11-21T04:01:55;25.60;;;17.80;;
32319;SDS011;19080;51.750;5.888;2023-11-21T04:04:23;24.77;;;17.40;;
32319;SDS011;19080;51.750;5.888;2023-11-21T04:06:50;22.38;;;16.27;;
32319;SDS011;19080;51.750;5.888;2023-11-21T04:09:18;23.15;;;18.02;;
32319;SDS011;19080;51.750;5.888;2023-11-21T04:11:45;23.23;;;17.65;;
32319;SDS011;19080;51.750;5.888;2023-11-21T04:14:13;20.42;;;15.70;;
32319;SDS011;19080;51.750;5.888;2023-11-21T04:16:40;21.65;;;17.17;;
32319;SDS011;19080;51.750;5.888;2023-11-21T04:19:07;18.67;;;15.25;;
32319;SDS011;19080;51.750;5.888;2023-11-21T04:21:36;20.85;;;16.55;;
32319;SDS011;19080;51.750;5.888;2023-11-21T04:24:04;18.45;;;14.95;;
32319;SDS011;19080;51.750;5.888;2023-11-21T04:26:31;20.92;;;16.33;;
32319;SDS011;19080;51.750;5.888;2023-11-21T04:28:58;20.27;;;14.75;;
32319;SDS011;19080;51.750;5.888;2023-11-21T04:31:25;20.70;;;16.27;;
32319;SDS011;19080;51.750;5.888;2023-11-21T04:33:51;20.42;;;16.05;;
32319;SDS011;19080;51.750;5.888;2023-11-21T04:36:18;22.90;;;17.30;;
32319;SDS011;19080;51.750;5.888;2023-11-21T04:38:46;23.17;;;17.33;;
32319;SDS011;19080;51.750;5.888;2023-11-21T04:41:12;19.92;;;15.80;;
32319;SDS011;19080;51.750;5.888;2023-11-21T04:43:39;29.00;;;17.80;;
32319;SDS011;19080;51.750;5.888;2023-11-21T04:46:06;21.55;;;17.05;;
32319;SDS011;19080;51.750;5.888;2023-11-21T04:48:33;30.58;;;17.17;;
32319;SDS011;19080;51.750;5.888;2023-11-21T04:51:00;24.13;;;17.80;;
32319;SDS011;19080;51.750;5.888;2023-11-21T04:53:26;20.33;;;16.33;;
32319;SDS011;19080;51.750;5.888;2023-11-21T04:55:53;22.13;;;16.73;;
32319;SDS011;19080;51.750;5.888;2023-11-21T04:58:20;23.73;;;17.00;;
32319;SDS011;19080;51.750;5.888;2023-11-21T05:00:47;20.80;;;16.90;;
32319;SDS011;19080;51.750;5.888;2023-11-21T05:03:13;22.00;;;17.13;;
32319;SDS011;19080;51.750;5.888;2023-11-21T05:05:40;22.00;;;16.33;;
32319;SDS011;19080;51.750;5.888;2023-11-21T05:08:07;31.92;;;18.75;;
32319;SDS011;19080;51.750;5.888;2023-11-21T05:10:34;19.80;;;15.93;;
32319;SDS011;19080;51.750;5.888;2023-11-21T05:13:04;20.42;;;16.17;;
32319;SDS011;19080;51.750;5.888;2023-11-21T05:15:36;20.92;;;16.42;;
32319;SDS011;19080;51.750;5.888;2023-11-21T05:18:03;19.52;;;15.55;;
32319;SDS011;19080;51.750;5.888;2023-11-21T05:20:31;20.42;;;16.15;;
32319;SDS011;19080;51.750;5.888;2023-11-21T05:22:59;22.55;;;17.33;;
32319;SDS011;19080;51.750;5.888;2023-11-21T05:25:26;21.92;;;16.63;;
32319;SDS011;19080;51.750;5.888;2023-11-21T05:27:52;19.77;;;15.98;;
32319;SDS011;19080;51.750;5.888;2023-11-21T05:30:21;26.10;;;17.90;;
32319;SDS011;19080;51.750;5.888;2023-11-21T05:32:48;22.90;;;16.98;;
32319;SDS011;19080;51.750;5.888;2023-11-21T05:35:16;26.98;;;18.15;;
32319;SDS011;19080;51.750;5.888;2023-11-21T05:37:44;23.33;;;16.95;;
32319;SDS011;19080;51.750;5.888;2023-11-21T05:40:12;21.45;;;15.32;;
32319;SDS011;19080;51.750;5.888;2023-11-21T05:42:39;22.30;;;17.08;;
32319;SDS011;19080;51.750;5.888;2023-11-21T05:45:07;20.30;;;16.58;;
32319;SDS011;19080;51.750;5.888;2023-11-21T05:47:42;23.33;;;18.08;;
32319;SDS011;19080;51.750;5.888;2023-11-21T05:50:13;24.10;;;17.77;;
32319;SDS011;19080;51.750;5.888;2023-11-21T05:52:42;23.05;;;16.48;;
32319;SDS011;19080;51.750;5.888;2023-11-21T05:55:10;19.92;;;15.95;;
32319;SDS011;19080;51.750;5.888;2023-11-21T05:57:37;21.50;;;16.45;;
32319;SDS011;19080;51.750;5.888;2023-11-21T06:00:06;20.15;;;16.52;;
32319;SDS011;19080;51.750;5.888;2023-11-21T06:02:42;23.35;;;17.58;;
32319;SDS011;19080;51.750;5.888;2023-11-21T06:05:09;21.38;;;16.92;;
32319;SDS011;19080;51.750;5.888;2023-11-21T06:07:37;22.45;;;16.90;;
32319;SDS011;19080;51.750;5.888;2023-11-21T06:10:04;20.35;;;15.63;;
32319;SDS011;19080;51.750;5.888;2023-11-21T06:12:39;21.70;;;16.42;;
32319;SDS011;19080;51.750;5.888;2023-11-21T06:15:06;21.42;;;16.50;;
32319;SDS011;19080;51.750;5.888;2023-11-21T06:17:35;22.17;;;15.63;;
32319;SDS011;19080;51.750;5.888;2023-11-21T06:20:03;21.60;;;16.40;;
32319;SDS011;19080;51.750;5.888;2023-11-21T06:22:36;23.33;;;17.05;;
32319;SDS011;19080;51.750;5.888;2023-11-21T06:25:04;23.65;;;17.08;;
32319;SDS011;19080;51.750;5.888;2023-11-21T06:27:32;23.85;;;16.48;;
32319;SDS011;19080;51.750;5.888;2023-11-21T06:30:00;21.88;;;15.13;;
32319;SDS011;19080;51.750;5.888;2023-11-21T06:32:27;21.67;;;15.27;;
32319;SDS011;19080;51.750;5.888;2023-11-21T06:34:56;20.63;;;14.95;;
32319;SDS011;19080;51.750;5.888;2023-11-21T06:37:29;23.83;;;15.52;;
32319;SDS011;19080;51.750;5.888;2023-11-21T06:39:57;21.15;;;15.43;;
32319;SDS011;19080;51.750;5.888;2023-11-21T06:42:24;22.67;;;17.13;;
32319;SDS011;19080;51.750;5.888;2023-11-21T06:44:52;22.65;;;16.48;;
32319;SDS011;19080;51.750;5.888;2023-11-21T06:47:20;25.30;;;16.80;;
32319;SDS011;19080;51.750;5.888;2023-11-21T06:49:47;19.85;;;15.15;;
32319;SDS011;19080;51.750;5.888;2023-11-21T06:52:16;22.30;;;16.38;;
32319;SDS011;19080;51.750;5.888;2023-11-21T06:54:44;20.00;;;16.02;;
32319;SDS011;19080;51.750;5.888;2023-11-21T06:57:11;25.33;;;17.90;;
32319;SDS011;19080;51.750;5.888;2023-11-21T06:59:38;22.42;;;17.15;;
32319;SDS011;19080;51.750;5.888;2023-11-21T07:02:04;22.92;;;16.73;;
32319;SDS011;19080;51.750;5.888;2023-11-21T07:04:35;19.02;;;14.32;;
32319;SDS011;19080;51.750;5.888;2023-11-21T07:07:03;20.67;;;15.35;;
32319;SDS011;19080;51.750;5.888;2023-11-21T07:09:30;21.63;;;16.58;;
32319;SDS011;19080;51.750;5.888;2023-11-21T07:11:57;25.10;;;17.52;;
32319;SDS011;19080;51.750;5.888;2023-11-21T07:14:24;23.83;;;18.00;;
32319;SDS011;19080;51.750;5.888;2023-11-21T07:16:50;21.92;;;16.27;;
32319;SDS011;19080;51.750;5.888;2023-11-21T07:19:19;24.35;;;16.98;;
32319;SDS011;19080;51.750;5.888;2023-11-21T07:21:48;21.73;;;16.85;;
32319;SDS011;19080;51.750;5.888;2023-11-21T07:24:17;23.50;;;17.13;;
32319;SDS011;19080;51.750;5.888;2023-11-21T07:26:44;23.40;;;16.23;;
32319;SDS011;19080;51.750;5.888;2023-11-21T07:29:11;19.58;;;15.80;;
32319;SDS011;19080;51.750;5.888;2023-11-21T07:31:38;26.05;;;17.02;;
32319;SDS011;19080;51.750;5.888;2023-11-21T07:34:05;21.90;;;16.80;;
32319;SDS011;19080;51.750;5.888;2023-11-21T07:36:32;20.33;;;16.77;;
32319;SDS011;19080;51.750;5.888;2023-11-21T07:38:58;21.85;;;16.55;;
32319;SDS011;19080;51.750;5.888;2023-11-21T07:41:25;21.67;;;15.88;;
32319;SDS011;19080;51.750;5.888;2023-11-21T07:43:57;23.00;;;16.88;;
32319;SDS011;19080;51.750;5.888;2023-11-21T07:46:25;21.02;;;16.42;;
32319;SDS011;19080;51.750;5.888;2023-11-21T07:48:53;21.83;;;17.42;;
32319;SDS011;19080;51.750;5.888;2023-11-21T07:51:21;22.35;;;16.48;;
32319;SDS011;19080;51.750;5.888;2023-11-21T07:53:48;21.60;;;16.67;;
32319;SDS011;19080;51.750;5.888;2023-11-21T07:56:16;22.60;;;16.65;;
32319;SDS011;19080;51.750;5.888;2023-11-21T07:58:42;25.70;;;17.73;;
32319;SDS011;19080;51.750;5.888;2023-11-21T08:01:09;23.27;;;17.70;;
32319;SDS011;19080;51.750;5.888;2023-11-21T08:03:36;27.50;;;18.38;;
32319;SDS011;19080;51.750;5.888;2023-11-21T08:06:03;26.23;;;18.95;;
32319;SDS011;19080;51.750;5.888;2023-11-21T08:08:33;21.15;;;16.33;;
32319;SDS011;19080;51.750;5.888;2023-11-21T08:10:59;20.40;;;15.77;;
32319;SDS011;19080;51.750;5.888;2023-11-21T08:13:28;24.38;;;17.90;;
32319;SDS011;19080;51.750;5.888;2023-11-21T08:15:57;22.15;;;17.73;;
32319;SDS011;19080;51.750;5.888;2023-11-21T08:18:28;22.38;;;18.23;;
32319;SDS011;19080;51.750;5.888;2023-11-21T08:20:56;21.33;;;16.42;;
32319;SDS011;19080;51.750;5.888;2023-11-21T08:23:23;26.20;;;18.75;;
32319;SDS011;19080;51.750;5.888;2023-11-21T08:25:53;22.58;;;18.08;;
32319;SDS011;19080;51.750;5.888;2023-11-21T08:28:20;20.50;;;16.83;;
32319;SDS011;19080;51.750;5.888;2023-11-21T08:30:48;20.98;;;16.52;;
32319;SDS011;19080;51.750;5.888;2023-11-21T08:33:15;20.85;;;16.83;;
32319;SDS011;19080;51.750;5.888;2023-11-21T08:35:41;18.98;;;15.75;;
32319;SDS011;19080;51.750;5.888;2023-11-21T08:38:08;17.80;;;15.45;;
32319;SDS011;19080;51.750;5.888;2023-11-21T08:40:36;22.33;;;16.52;;
32319;SDS011;19080;51.750;5.888;2023-11-21T08:43:03;19.10;;;16.48;;
32319;SDS011;19080;51.750;5.888;2023-11-21T08:45:31;19.48;;;16.27;;
32319;SDS011;19080;51.750;5.888;2023-11-21T08:48:00;20.50;;;16.15;;
32319;SDS011;19080;51.750;5.888;2023-11-21T08:50:28;20.52;;;16.23;;
32319;SDS011;19080;51.750;5.888;2023-11-21T08:52:54;22.40;;;17.08;;
32319;SDS011;19080;51.750;5.888;2023-11-21T08:55:22;22.50;;;16.27;;
32319;SDS011;19080;51.750;5.888;2023-11-21T08:57:48;20.55;;;16.77;;
32319;SDS011;19080;51.750;5.888;2023-11-21T09:00:15;23.15;;;17.90;;
32319;SDS011;19080;51.750;5.888;2023-11-21T09:02:44;23.92;;;17.42;;
32319;SDS011;19080;51.750;5.888;2023-11-21T09:05:11;22.15;;;16.98;;
32319;SDS011;19080;51.750;5.888;2023-11-21T09:07:40;22.38;;;17.55;;
32319;SDS011;19080;51.750;5.888;2023-11-21T09:10:08;24.77;;;19.10;;
32319;SDS011;19080;51.750;5.888;2023-11-21T09:12:36;23.75;;;17.67;;
32319;SDS011;19080;51.750;5.888;2023-11-21T09:15:04;22.23;;;18.48;;
32319;SDS011;19080;51.750;5.888;2023-11-21T09:17:32;21.92;;;17.40;;
32319;SDS011;19080;51.750;5.888;2023-11-21T09:20:01;21.95;;;16.98;;
32319;SDS011;19080;51.750;5.888;2023-11-21T09:22:32;29.17;;;18.63;;
32319;SDS011;19080;51.750;5.888;2023-11-21T09:24:59;22.23;;;16.92;;
32319;SDS011;19080;51.750;5.888;2023-11-21T09:27:26;24.85;;;18.17;;
32319;SDS011;19080;51.750;5.888;2023-11-21T09:29:52;23.95;;;17.17;;
32319;SDS011;19080;51.750;5.888;2023-11-21T09:32:20;24.70;;;17.95;;
32319;SDS011;19080;51.750;5.888;2023-11-21T09:34:48;26.58;;;17.75;;
32319;SDS011;19080;51.750;5.888;2023-11-21T09:37:15;25.95;;;18.75;;
32319;SDS011;19080;51.750;5.888;2023-11-21T09:39:43;25.42;;;19.20;;
32319;SDS011;19080;51.750;5.888;2023-11-21T09:42:13;27.77;;;18.92;;
32319;SDS011;19080;51.750;5.888;2023-11-21T09:47:44;25.05;;;18.15;;
32319;SDS011;19080;51.750;5.888;2023-11-21T09:50:11;24.67;;;19.55;;
32319;SDS011;19080;51.750;5.888;2023-11-21T09:55:37;27.83;;;19.15;;
32319;SDS011;19080;51.750;5.888;2023-11-21T09:58:06;28.15;;;17.50;;
32319;SDS011;19080;51.750;5.888;2023-11-21T10:00:39;25.23;;;18.58;;
32319;SDS011;19080;51.750;5.888;2023-11-21T10:03:07;24.30;;;17.67;;
32319;SDS011;19080;51.750;5.888;2023-11-21T10:05:35;25.35;;;18.05;;
32319;SDS011;19080;51.750;5.888;2023-11-21T10:08:11;26.90;;;18.52;;
32319;SDS011;19080;51.750;5.888;2023-11-21T10:10:45;24.02;;;17.70;;
32319;SDS011;19080;51.750;5.888;2023-11-21T10:13:14;26.67;;;18.40;;
32319;SDS011;19080;51.750;5.888;2023-11-21T10:15:44;26.05;;;19.02;;
32319;SDS011;19080;51.750;5.888;2023-11-21T10:18:16;24.15;;;18.13;;
32319;SDS011;19080;51.750;5.888;2023-11-21T10:20:44;28.17;;;19.33;;
32319;SDS011;19080;51.750;5.888;2023-11-21T10:23:21;31.77;;;21.40;;
32319;SDS011;19080;51.750;5.888;2023-11-21T10:25:50;27.92;;;20.27;;
32319;SDS011;19080;51.750;5.888;2023-11-21T10:28:19;28.20;;;19.35;;
32319;SDS011;19080;51.750;5.888;2023-11-21T10:30:47;28.80;;;19.20;;
32319;SDS011;19080;51.750;5.888;2023-11-21T10:33:13;33.60;;;22.00;;
32319;SDS011;19080;51.750;5.888;2023-11-21T10:35:47;29.00;;;21.42;;
32319;SDS011;19080;51.750;5.888;2023-11-21T10:38:21;31.63;;;19.75;;
32319;SDS011;19080;51.750;5.888;2023-11-21T10:40:50;25.90;;;18.45;;
32319;SDS011;19080;51.750;5.888;2023-11-21T10:43:17;27.55;;;19.85;;
32319;SDS011;19080;51.750;5.888;2023-11-21T10:45:45;28.05;;;20.85;;
32319;SDS011;19080;51.750;5.888;2023-11-21T10:48:13;26.63;;;20.13;;
32319;SDS011;19080;51.750;5.888;2023-11-21T10:50:44;30.23;;;21.20;;
32319;SDS011;19080;51.750;5.888;2023-11-21T10:53:12;31.75;;;21.35;;
32319;SDS011;19080;51.750;5.888;2023-11-21T10:55:39;35.97;;;23.40;;
32319;SDS011;19080;51.750;5.888;2023-11-21T10:58:07;32.08;;;23.70;;
32319;SDS011;19080;51.750;5.888;2023-11-21T11:00:36;28.45;;;21.48;;
32319;SDS011;19080;51.750;5.888;2023-11-21T11:03:06;30.50;;;22.20;;
32319;SDS011;19080;51.750;5.888;2023-11-21T11:05:40;27.33;;;20.90;;
32319;SDS011;19080;51.750;5.888;2023-11-21T11:08:08;29.65;;;21.48;;
32319;SDS011;19080;51.750;5.888;2023-11-21T11:10:38;27.95;;;20.77;;
32319;SDS011;19080;51.750;5.888;2023-11-21T11:13:06;31.25;;;21.38;;
32319;SDS011;19080;51.750;5.888;2023-11-21T11:15:33;33.33;;;22.77;;
32319;SDS011;19080;51.750;5.888;2023-11-21T11:18:00;29.15;;;20.92;;
32319;SDS011;19080;51.750;5.888;2023-11-21T11:20:32;33.00;;;22.15;;
32319;SDS011;19080;51.750;5.888;2023-11-21T11:28:47;28.35;;;19.42;;
32319;SDS011;19080;51.750;5.888;2023-11-21T11:34:04;25.95;;;19.50;;
32319;SDS011;19080;51.750;5.888;2023-11-21T11:36:41;22.08;;;16.98;;
32319;SDS011;19080;51.750;5.888;2023-11-21T11:41:57;24.55;;;15.63;;
32319;SDS011;19080;51.750;5.888;2023-11-21T11:47:13;18.38;;;13.27;;
32319;SDS011;19080;51.750;5.888;2023-11-21T11:49:58;20.63;;;13.45;;
32319;SDS011;19080;51.750;5.888;2023-11-21T11:55:03;15.15;;;12.77;;
32319;SDS011;19080;51.750;5.888;2023-11-21T11:57:30;17.63;;;12.98;;
32319;SDS011;19080;51.750;5.888;2023-11-21T12:02:38;20.75;;;15.40;;
32319;SDS011;19080;51.750;5.888;2023-11-21T12:05:09;23.63;;;15.48;;
32319;SDS011;19080;51.750;5.888;2023-11-21T12:07:52;23.52;;;15.43;;
32319;SDS011;19080;51.750;5.888;2023-11-21T12:10:21;21.73;;;15.38;;
32319;SDS011;19080;51.750;5.888;2023-11-21T12:12:51;23.27;;;16.95;;
32319;SDS011;19080;51.750;5.888;2023-11-21T12:15:19;21.85;;;17.17;;
32319;SDS011;19080;51.750;5.888;2023-11-21T12:17:47;26.63;;;16.90;;
32319;SDS011;19080;51.750;5.888;2023-11-21T12:20:18;28.92;;;17.65;;
32319;SDS011;19080;51.750;5.888;2023-11-21T12:22:46;26.05;;;18.30;;
32319;SDS011;19080;51.750;5.888;2023-11-21T12:25:15;25.50;;;17.73;;
32319;SDS011;19080;51.750;5.888;2023-11-21T12:27:48;24.83;;;17.20;;
32319;SDS011;19080;51.750;5.888;2023-11-21T12:30:17;27.23;;;19.17;;
32319;SDS011;19080;51.750;5.888;2023-11-21T12:32:48;27.15;;;18.88;;
32319;SDS011;19080;51.750;5.888;2023-11-21T12:35:18;22.20;;;17.05;;
32319;SDS011;19080;51.750;5.888;2023-11-21T12:37:48;24.80;;;18.05;;
32319;SDS011;19080;51.750;5.888;2023-11-21T12:40:15;28.65;;;18.90;;
32319;SDS011;19080;51.750;5.888;2023-11-21T12:42:44;21.05;;;16.00;;
32319;SDS011;19080;51.750;5.888;2023-11-21T12:48:01;27.45;;;18.52;;
32319;SDS011;19080;51.750;5.888;2023-11-21T12:50:34;24.95;;;17.27;;
32319;SDS011;19080;51.750;5.888;2023-11-21T12:55:30;20.02;;;16.15;;
32319;SDS011;19080;51.750;5.888;2023-11-21T12:58:00;24.50;;;16.70;;
32319;SDS011;19080;51.750;5.888;2023-11-21T13:00:35;20.67;;;15.70;;
32319;SDS011;19080;51.750;5.888;2023-11-21T13:03:05;19.13;;;14.25;;
32319;SDS011;19080;51.750;5.888;2023-11-21T13:05:34;16.90;;;13.18;;
32319;SDS011;19080;51.750;5.888;2023-11-21T13:08:08;15.35;;;11.82;;
32319;SDS011;19080;51.750;5.888;2023-11-21T13:10:41;16.58;;;11.85;;
32319;SDS011;19080;51.750;5.888;2023-11-21T13:13:10;12.50;;;10.40;;
32319;SDS011;19080;51.750;5.888;2023-11-21T13:15:48;11.85;;;10.32;;
32319;SDS011;19080;51.750;5.888;2023-11-21T13:18:23;13.13;;;9.43;;
32319;SDS011;19080;51.750;5.888;2023-11-21T13:20:51;10.63;;;8.73;;
32319;SDS011;19080;51.750;5.888;2023-11-21T13:23:19;11.90;;;9.07;;
32319;SDS011;19080;51.750;5.888;2023-11-21T13:25:46;11.40;;;9.77;;
32319;SDS011;19080;51.750;5.888;2023-11-21T13:28:23;15.30;;;11.00;;
32319;SDS011;19080;51.750;5.888;2023-11-21T13:30:50;12.90;;;10.48;;
32319;SDS011;19080;51.750;5.888;2023-11-21T13:33:19;16.40;;;10.68;;
32319;SDS011;19080;51.750;5.888;2023-11-21T13:35:48;11.98;;;9.65;;
32319;SDS011;19080;51.750;5.888;2023-11-21T13:38:17;12.25;;;9.75;;
32319;SDS011;19080;51.750;5.888;2023-11-21T13:40:49;12.32;;;9.55;;
32319;SDS011;19080;51.750;5.888;2023-11-21T13:43:20;12.80;;;10.45;;
32319;SDS011;19080;51.750;5.888;2023-11-21T13:45:51;15.27;;;10.93;;
32319;SDS011;19080;51.750;5.888;2023-11-21T13:48:27;14.23;;;11.23;;
32319;SDS011;19080;51.750;5.888;2023-11-21T13:51:15;15.18;;;11.05;;
32319;SDS011;19080;51.750;5.888;2023-11-21T13:53:45;13.50;;;10.73;;
32319;SDS011;19080;51.750;5.888;2023-11-21T13:56:17;16.42;;;11.90;;
32319;SDS011;19080;51.750;5.888;2023-11-21T13:58:50;18.60;;;13.25;;
32319;SDS011;19080;51.750;5.888;2023-11-21T14:01:18;21.48;;;14.98;;
32319;SDS011;19080;51.750;5.888;2023-11-21T14:04:02;20.63;;;14.93;;
32319;SDS011;19080;51.750;5.888;2023-11-21T14:06:59;20.88;;;15.40;;
32319;SDS011;19080;51.750;5.888;2023-11-21T14:09:37;19.30;;;14.02;;
32319;SDS011;19080;51.750;5.888;2023-11-21T14:12:10;20.63;;;15.13;;
32319;SDS011;19080;51.750;5.888;2023-11-21T14:14:39;22.65;;;16.40;;
32319;SDS011;19080;51.750;5.888;2023-11-21T14:17:06;21.27;;;14.90;;
32319;SDS011;19080;51.750;5.888;2023-11-21T14:19:33;18.75;;;15.00;;
32319;SDS011;19080;51.750;5.888;2023-11-21T14:22:03;20.38;;;14.85;;
32319;SDS011;19080;51.750;5.888;2023-11-21T14:24:30;23.73;;;15.68;;
32319;SDS011;19080;51.750;5.888;2023-11-21T14:26:58;19.85;;;14.45;;
32319;SDS011;19080;51.750;5.888;2023-11-21T14:29:26;20.02;;;13.95;;
32319;SDS011;19080;51.750;5.888;2023-11-21T14:31:54;21.30;;;14.93;;
32319;SDS011;19080;51.750;5.888;2023-11-21T14:34:23;19.85;;;15.00;;
32319;SDS011;19080;51.750;5.888;2023-11-21T14:36:50;23.27;;;15.48;;
32319;SDS011;19080;51.750;5.888;2023-11-21T14:39:17;25.95;;;16.45;;
32319;SDS011;19080;51.750;5.888;2023-11-21T14:41:52;24.38;;;16.17;;
32319;SDS011;19080;51.750;5.888;2023-11-21T14:44:22;22.42;;;14.93;;
32319;SDS011;19080;51.750;5.888;2023-11-21T14:46:52;21.95;;;15.18;;
32319;SDS011;19080;51.750;5.888;2023-11-21T14:49:24;18.55;;;13.43;;
32319;SDS011;19080;51.750;5.888;2023-11-21T14:51:53;22.13;;;15.52;;
32319;SDS011;19080;51.750;5.888;2023-11-21T14:54:30;27.13;;;16.23;;
32319;SDS011;19080;51.750;5.888;2023-11-21T14:57:11;23.08;;;14.85;;
32319;SDS011;19080;51.750;5.888;2023-11-21T14:59:44;21.33;;;14.95;;
32319;SDS011;19080;51.750;5.888;2023-11-21T15:02:19;18.75;;;11.88;;